Main page


Airports :

Erfurt, Germany

Erfurt–Weimar Airport

latitude: 50-59N, longitude: 010-58E, elevation: 315 m

Current weather observation

The report was made 22 minutes ago, at 11:20 UTC
Wind 17 kt from the East/Northeast with gusts up to 27 kt
Temperature -6°C
Humidity 62%
Pressure 1011 hPa
Visibility 10 km or more
Scattered clouds at a height of 2600 ft
Broken clouds at a height of 30000 ft
Low drifting snow

METAR: EDDE 181120Z 06017G27KT 9999 DRSN SCT026 BKN300 M06/M12 Q1011 R88/990292 NOSIG

Time: 12:42 (11:42 UTC)


The report was made 42 minutes ago, at 11:00 UTC
Forecast valid from 18 at 12 UTC to 19 at 12 UTC
Wind 20 kt from the East/Northeast with gusts up to 30 kt
Visibility 10 km or more
no clouds below 1500 m and no cumulonimbus
from 18 at 15 UTC to 18 at 18 UTC
Wind 15 kt from the East with gusts up to 25 kt
from 18 at 18 UTC to 18 at 21 UTC
Wind 9 kt from the East/Northeast

TAF: EDDE 181100Z 1812/1912 07020G30KT CAVOK BECMG 1815/1818 08015G25KT BECMG 1818/1821 06009KT

Weather observations and forecasts of more than 4000 airports (METAR and TAF reports).

The available stations are represented by yellow and red dots on the map.

Hover mouse over dot to see the name of the station.

Then click to see weather observations and forecasts.

To change the map : click on the green buttons with a black cross to zoom in, on the green button with a dash to zoom out, or on the green arrows for adjacent maps.